KDAY/DAY METAR and TAF weather

Enter ICAO airport designator
Station Type Date Time Source
KDAY METAR 2021/07/28 19:56 UTC NOAA

KDAY 281956Z 26004KT 10SM FEW034 SCT038 SCT050 30/19 A3006 RMK AO2 SLP171 T03000189


Station Type Date Time Source
KDAY Decoded METAR 2021/07/28 19:56 UTC NOAA

COX DAYTON INTERNATIONAL, OH, United States (KDAY) 39-54N 084-13W 305M
Jul 28, 2021 - 03:56 PM EDT / 2021.07.28 1956 UTC
Wind: from the W (260 degrees) at 5 MPH (4 KT):0
Visibility: 10 mile(s):0
Sky conditions: partly cloudy
Temperature: 86.0 F (30.0 C)
Dew Point: 66.0 F (18.9 C)
Relative Humidity: 51%
Pressure (altimeter): 30.06 in. Hg (1017 hPa)
ob: KDAY 281956Z 26004KT 10SM FEW034 SCT038 SCT050 30/19 A3006 RMK AO2 SLP171 T03000189
cycle: 20

Station Type Date Time Source
KDAY TAF 2021/07/28 18:39 UTC NOAA

TAF KDAY 281736Z 2818/2918 30008KT P6SM SCT035
FM290000 27003KT P6SM FEW250
FM291200 23008G18KT P6SM VCSH BKN080
FM291700 25012G22KT P6SM VCSH BKN080

Example: see airport list